CheckWX is a tool to help pilots better visualize weather data.  It is not intended as a substitute for an official pre-flight weather briefing.

18:28:05 UTC

KGDV TAF
Dawson Community Airport
Glendive, Montana, USA
KGDV 201756Z 2018/2118 07010G18KT P6SM FEW150 FM210100 10008KT P6SM FEW150

Aug-20@
18:00 UTC

Aug-20 @ 18:00 UTC

Aug-21@
01:00 UTC

Aug-21 @ 01:00 UTC

KGDV 201756Z 2018/2118 07010G18KT P6SM FEW150
Wind
  • 070° at 10 KTS
  • {Gusting to 18 KTS
Cloud Levels
  • Few at 15,000' AGL

Aug-21@
01:00 UTC

Aug-21 @ 01:00 UTC

Aug-21@
18:00 UTC

Aug-21 @ 18:00 UTC

FM210100 10008KT P6SM FEW150

From

From Standard forecast or significant change

Wind
  • 100° at 8 KTS
Cloud Levels
  • Few at 15,000' AGL